Time;durP1;ratioP1;P1;durP2;ratioP2;P2;SDS_P1;SDS_P2;PMS_P1;PMS_P2;Temp;Humidity;BMP_temperature;BMP_pressure;BME280_temperature;BME280_humidity;BME280_pressure;Samples;Min_cycle;Max_cycle;Signal;HPM_P1;HPM_P2
2022/05/21 00:00:54;;;;;;;11.18;7.13;;;15.80;72.40;;;;;;5129635;27;20027;-64
2022/05/21 00:03:20;;;;;;;12.80;7.43;;;15.80;72.40;;;;;;5130090;27;20426;-64
2022/05/21 00:05:46;;;;;;;11.48;7.32;;;15.80;72.40;;;;;;5132172;27;20059;-64
2022/05/21 00:08:12;;;;;;;12.88;6.47;;;15.80;72.40;;;;;;5128840;27;20063;-64
2022/05/21 00:10:39;;;;;;;11.80;6.80;;;15.80;72.40;;;;;;5127965;27;20455;-64
2022/05/21 00:13:05;;;;;;;11.88;6.97;;;15.80;72.60;;;;;;5104878;28;20024;-63
2022/05/21 00:15:32;;;;;;;12.95;6.82;;;15.80;72.70;;;;;;5126434;27;20023;-63
2022/05/21 00:17:58;;;;;;;12.52;7.38;;;15.80;72.60;;;;;;5121845;27;20107;-63
2022/05/21 00:23:09;;;;;;;12.35;7.60;;;15.80;72.60;;;;;;5127786;27;20036;-63
2022/05/21 00:25:35;;;;;;;11.90;6.90;;;15.80;72.50;;;;;;5124391;27;20019;-63
2022/05/21 00:28:01;;;;;;;12.05;7.30;;;15.80;72.40;;;;;;5124324;27;20027;-63
2022/05/21 00:30:26;;;;;;;12.38;7.13;;;15.80;72.40;;;;;;5134210;27;20039;-63
2022/05/21 00:32:52;;;;;;;12.32;7.35;;;15.80;72.40;;;;;;5119291;28;20024;-63
2022/05/21 00:35:17;;;;;;;10.55;7.10;;;15.80;72.40;;;;;;5121975;28;20023;-63
2022/05/21 00:37:43;;;;;;;10.48;6.88;;;15.80;72.40;;;;;;5127362;28;20123;-63
2022/05/21 00:40:09;;;;;;;10.23;7.45;;;15.80;72.40;;;;;;5125606;28;20031;-63
2022/05/21 00:42:35;;;;;;;14.57;8.13;;;15.80;72.40;;;;;;5098046;28;20535;-63
2022/05/21 00:45:01;;;;;;;11.73;7.35;;;15.80;72.40;;;;;;5122571;27;20111;-63
2022/05/21 00:47:26;;;;;;;11.75;7.35;;;15.80;72.40;;;;;;5127753;28;20028;-63
2022/05/21 00:49:52;;;;;;;12.05;8.18;;;15.80;72.40;;;;;;5115119;28;20027;-63
2022/05/21 00:52:21;;;;;;;12.48;8.32;;;15.80;72.40;;;;;;5135166;27;20023;-63
2022/05/21 00:54:59;;;;;;;12.75;8.07;;;15.80;72.30;;;;;;5125220;28;20035;-63
2022/05/21 00:57:35;;;;;;;13.48;7.95;;;15.80;72.30;;;;;;5124798;27;20024;-63
2022/05/21 01:00:12;;;;;;;14.15;8.18;;;15.80;72.30;;;;;;5119020;27;20035;-63
2022/05/21 01:02:49;;;;;;;14.60;8.77;;;15.80;72.30;;;;;;5137201;27;20455;-63
2022/05/21 01:05:17;;;;;;;12.63;8.55;;;15.80;72.30;;;;;;5119221;27;20023;-63
2022/05/21 01:07:45;;;;;;;12.30;8.27;;;15.80;72.20;;;;;;5130048;27;20038;-63
2022/05/21 01:10:15;;;;;;;13.05;8.68;;;15.80;72.10;;;;;;5118932;27;20092;-63
2022/05/21 01:12:47;;;;;;;14.88;9.13;;;15.80;72.10;;;;;;5129804;27;20042;-63
2022/05/21 01:15:16;;;;;;;13.35;8.70;;;15.80;72.20;;;;;;5124411;27;20019;-63
2022/05/21 01:17:42;;;;;;;11.82;8.65;;;15.80;72.20;;;;;;5124927;27;20035;-63
2022/05/21 01:20:13;;;;;;;12.65;8.75;;;15.80;72.30;;;;;;5126408;27;20041;-64
2022/05/21 01:22:53;;;;;;;13.20;8.57;;;15.80;72.20;;;;;;5126422;27;20028;-63
2022/05/21 01:25:23;;;;;;;14.70;8.90;;;15.80;72.20;;;;;;5118491;27;20035;-63
2022/05/21 01:27:50;;;;;;;13.25;9.20;;;15.80;72.10;;;;;;5117908;27;20042;-63
2022/05/21 01:30:20;;;;;;;13.60;9.02;;;15.80;72.20;;;;;;5122517;27;20059;-63
2022/05/21 01:32:47;;;;;;;13.55;9.65;;;15.80;72.30;;;;;;5133595;27;20519;-64
2022/05/21 01:35:16;;;;;;;11.35;8.05;;;15.80;72.30;;;;;;5123165;27;20032;-63
2022/05/21 01:37:42;;;;;;;13.10;8.52;;;15.80;72.30;;;;;;5132615;27;20039;-63
2022/05/21 01:40:09;;;;;;;12.57;8.63;;;15.80;72.30;;;;;;5127160;27;20027;-63
2022/05/21 01:42:35;;;;;;;12.38;8.43;;;15.80;72.20;;;;;;5133827;27;20035;-63
2022/05/21 01:45:01;;;;;;;13.00;8.57;;;15.80;72.20;;;;;;5126761;27;20028;-63
2022/05/21 01:47:31;;;;;;;12.95;9.50;;;15.80;72.20;;;;;;5124274;27;20031;-63
2022/05/21 01:49:57;;;;;;;15.15;8.93;;;15.80;72.20;;;;;;5124031;27;20027;-63
2022/05/21 01:52:22;;;;;;;15.27;8.85;;;15.80;72.30;;;;;;5123611;27;20463;-63
2022/05/21 01:54:48;;;;;;;13.52;8.38;;;15.80;72.30;;;;;;5128772;27;20037;-64
2022/05/21 01:57:14;;;;;;;13.55;8.63;;;15.80;72.40;;;;;;5117765;27;20027;-63
2022/05/21 01:59:40;;;;;;;13.30;8.32;;;15.80;72.40;;;;;;5116360;27;20451;-63
2022/05/21 02:02:06;;;;;;;12.57;7.63;;;15.80;72.40;;;;;;5126555;27;20034;-63
2022/05/21 02:04:33;;;;;;;15.27;9.10;;;15.80;72.40;;;;;;5134110;27;20381;-63
2022/05/21 02:06:58;;;;;;;13.25;8.73;;;15.80;72.40;;;;;;5120538;27;20447;-63
2022/05/21 02:09:24;;;;;;;13.20;8.35;;;15.80;72.50;;;;;;5115904;28;20031;-63
2022/05/21 02:11:49;;;;;;;14.70;8.68;;;15.80;72.40;;;;;;5132553;27;20429;-63
2022/05/21 02:14:15;;;;;;;13.70;8.65;;;15.80;72.40;;;;;;5118266;27;20087;-63
2022/05/21 02:16:42;;;;;;;12.35;8.93;;;15.90;72.40;;;;;;5119401;27;20023;-63
2022/05/21 02:19:09;;;;;;;14.68;8.15;;;15.90;72.40;;;;;;5117855;28;20423;-63
2022/05/21 02:21:36;;;;;;;13.55;8.60;;;15.90;72.40;;;;;;5117762;27;20038;-64
2022/05/21 02:24:03;;;;;;;10.65;7.50;;;15.90;72.40;;;;;;5125024;27;20024;-64
2022/05/21 02:26:33;;;;;;;12.65;8.38;;;15.90;72.40;;;;;;5130464;27;20364;-63
2022/05/21 02:28:58;;;;;;;14.23;8.52;;;15.90;72.50;;;;;;5115966;27;20031;-63
2022/05/21 02:31:24;;;;;;;14.50;8.80;;;15.90;72.50;;;;;;5120397;27;20034;-63
2022/05/21 02:33:49;;;;;;;14.20;8.65;;;15.90;72.50;;;;;;5126998;27;20479;-63
2022/05/21 02:36:15;;;;;;;12.63;8.52;;;15.90;72.60;;;;;;5135573;27;20352;-63
2022/05/21 02:41:25;;;;;;;13.65;8.60;;;15.90;72.60;;;;;;5123445;27;20057;-63
2022/05/21 02:43:51;;;;;;;15.90;8.80;;;15.80;72.60;;;;;;5125390;27;20399;-63
2022/05/21 02:46:17;;;;;;;14.82;8.77;;;15.80;72.80;;;;;;5117423;27;20035;-63
2022/05/21 02:48:44;;;;;;;13.80;8.13;;;15.80;72.80;;;;;;5133193;27;20033;-63
2022/05/21 02:51:10;;;;;;;11.52;7.72;;;15.80;72.90;;;;;;5130211;27;20023;-63
2022/05/21 02:53:37;;;;;;;13.00;8.07;;;15.80;72.90;;;;;;5128686;27;20118;-64
2022/05/21 02:56:08;;;;;;;15.80;8.88;;;15.90;73.00;;;;;;5125536;27;20031;-63
2022/05/21 02:58:34;;;;;;;13.88;8.45;;;15.90;73.00;;;;;;5130664;27;20347;-63
2022/05/21 03:01:00;;;;;;;17.63;8.18;;;15.90;72.90;;;;;;5128152;27;20111;-63
2022/05/21 03:03:26;;;;;;;12.43;8.07;;;15.90;73.00;;;;;;5116780;27;20341;-63
2022/05/21 03:05:51;;;;;;;14.32;8.43;;;15.90;73.00;;;;;;5116862;27;20057;-63
2022/05/21 03:11:01;;;;;;;14.57;8.02;;;15.90;73.00;;;;;;5116255;27;20371;-63
2022/05/21 03:13:27;;;;;;;13.32;8.52;;;15.90;73.00;;;;;;5128478;27;20031;-63
2022/05/21 03:15:53;;;;;;;13.75;7.72;;;15.90;73.10;;;;;;5130600;27;20065;-64
2022/05/21 03:18:20;;;;;;;12.40;8.02;;;15.90;73.10;;;;;;5126109;27;20031;-63
2022/05/21 03:20:46;;;;;;;14.90;7.82;;;15.90;73.20;;;;;;5128474;27;20038;-63
2022/05/21 03:23:12;;;;;;;15.02;8.85;;;15.90;73.30;;;;;;5116596;27;20020;-64
2022/05/21 03:25:38;;;;;;;14.15;8.35;;;15.90;73.40;;;;;;5115737;28;20034;-65
2022/05/21 03:28:05;;;;;;;12.93;8.07;;;15.90;73.40;;;;;;5123733;27;20027;-63
2022/05/21 03:30:32;;;;;;;15.88;9.30;;;15.90;73.40;;;;;;5131398;27;20066;-63
2022/05/21 03:32:58;;;;;;;13.88;8.43;;;15.90;73.40;;;;;;5117673;27;20031;-64
2022/05/21 03:35:24;;;;;;;14.50;9.15;;;15.90;73.50;;;;;;5115067;28;20034;-63
2022/05/21 03:37:51;;;;;;;13.43;7.80;;;15.90;73.50;;;;;;5118979;27;20035;-64
2022/05/21 03:40:21;;;;;;;15.18;8.52;;;15.90;73.50;;;;;;5126793;27;20070;-63
2022/05/21 03:42:47;;;;;;;13.95;7.82;;;15.90;73.60;;;;;;5123516;27;20389;-63
2022/05/21 03:45:14;;;;;;;13.35;7.50;;;15.90;73.70;;;;;;5135681;27;20067;-63
2022/05/21 03:47:41;;;;;;;16.58;8.30;;;15.90;73.70;;;;;;5128656;27;20023;-64
2022/05/21 03:50:11;;;;;;;12.55;8.27;;;15.90;73.80;;;;;;5116021;28;20035;-63
2022/05/21 03:52:39;;;;;;;14.55;8.30;;;15.90;73.80;;;;;;5116332;27;20020;-65
2022/05/21 03:55:05;;;;;;;14.63;8.02;;;15.90;73.80;;;;;;5097773;28;20035;-63
2022/05/21 03:57:31;;;;;;;13.40;8.18;;;15.90;73.80;;;;;;5117451;27;20073;-63
2022/05/21 03:59:57;;;;;;;14.10;7.60;;;16.00;73.90;;;;;;5136183;27;20027;-63
2022/05/21 04:02:23;;;;;;;17.60;8.38;;;15.90;73.80;;;;;;5116788;27;20520;-63
2022/05/21 04:04:49;;;;;;;17.52;8.40;;;16.00;73.90;;;;;;5115661;27;20380;-63
2022/05/21 04:07:15;;;;;;;15.50;8.30;;;16.00;73.90;;;;;;5120063;27;20027;-63
2022/05/21 04:09:40;;;;;;;15.52;7.90;;;16.00;74.00;;;;;;5123455;27;20023;-63
2022/05/21 04:12:07;;;;;;;16.85;8.25;;;16.00;73.90;;;;;;5127384;27;20043;-63
2022/05/21 04:14:32;;;;;;;15.52;8.32;;;16.00;73.90;;;;;;5123022;27;20044;-64
2022/05/21 04:17:00;;;;;;;14.55;7.32;;;16.00;74.00;;;;;;5120600;27;20031;-65
2022/05/21 04:19:27;;;;;;;11.75;6.82;;;16.00;74.00;;;;;;5116488;27;20019;-64
2022/05/21 04:21:53;;;;;;;14.27;7.40;;;16.00;74.00;;;;;;5120072;27;20471;-65
2022/05/21 04:24:19;;;;;;;13.15;7.95;;;16.00;74.10;;;;;;5117572;28;20372;-65
2022/05/21 04:26:45;;;;;;;16.13;7.13;;;16.00;74.20;;;;;;5114960;28;20035;-65
2022/05/21 04:29:12;;;;;;;14.32;7.32;;;16.00;74.30;;;;;;5115687;28;20515;-65
2022/05/21 04:31:38;;;;;;;14.00;7.03;;;16.00;74.30;;;;;;5122665;28;20023;-65
2022/05/21 04:34:04;;;;;;;12.40;6.68;;;16.00;74.20;;;;;;5120651;27;20027;-65
2022/05/21 04:36:32;;;;;;;12.98;6.90;;;16.00;74.20;;;;;;5114510;28;20038;-64
2022/05/21 04:38:58;;;;;;;13.82;6.90;;;16.10;74.20;;;;;;5114081;28;20035;-65
2022/05/21 04:41:25;;;;;;;16.25;7.38;;;16.10;74.20;;;;;;5121780;28;20035;-65
2022/05/21 04:43:51;;;;;;;13.95;6.97;;;16.10;74.20;;;;;;5121332;27;20035;-65
2022/05/21 04:46:17;;;;;;;13.43;5.93;;;16.10;74.20;;;;;;5118349;27;20031;-64
2022/05/21 04:48:44;;;;;;;20.92;7.20;;;16.10;74.20;;;;;;5131180;27;20504;-64
2022/05/21 04:51:09;;;;;;;17.00;7.40;;;16.10;74.20;;;;;;5120961;27;20055;-64
2022/05/21 04:53:36;;;;;;;15.48;6.95;;;16.10;74.20;;;;;;5102583;28;20483;-65
2022/05/21 04:56:01;;;;;;;13.75;7.30;;;16.10;74.20;;;;;;5116011;28;20033;-64
2022/05/21 04:58:27;;;;;;;17.83;7.00;;;16.20;74.30;;;;;;5119348;27;20016;-64
2022/05/21 05:00:53;;;;;;;11.50;6.53;;;16.20;74.20;;;;;;5115010;28;20068;-64
2022/05/21 05:03:19;;;;;;;13.60;6.15;;;16.20;74.20;;;;;;5113953;28;20469;-64
2022/05/21 05:05:46;;;;;;;11.13;6.40;;;16.20;74.10;;;;;;5122695;28;20059;-64
2022/05/21 05:08:15;;;;;;;18.05;7.15;;;16.20;74.20;;;;;;5135491;27;20027;-64
2022/05/21 05:10:45;;;;;;;13.68;6.85;;;16.20;74.20;;;;;;5128238;27;20031;-64
2022/05/21 05:13:11;;;;;;;12.30;6.40;;;16.20;74.20;;;;;;5120333;27;20444;-64
2022/05/21 05:15:37;;;;;;;15.10;6.53;;;16.20;74.40;;;;;;5114570;28;20111;-64
2022/05/21 05:18:06;;;;;;;14.32;6.40;;;16.30;74.40;;;;;;5114282;28;20124;-64
2022/05/21 05:20:32;;;;;;;17.38;6.90;;;16.30;74.40;;;;;;5113919;28;20418;-64
2022/05/21 05:22:57;;;;;;;14.52;6.10;;;16.30;74.20;;;;;;5113896;28;20032;-64
2022/05/21 05:25:23;;;;;;;13.65;6.30;;;16.30;74.10;;;;;;5114998;28;20035;-64
2022/05/21 05:27:50;;;;;;;13.45;6.05;;;16.30;74.10;;;;;;5132207;28;20045;-64
2022/05/21 05:30:17;;;;;;;13.60;5.65;;;16.30;74.20;;;;;;5134496;27;20034;-64
2022/05/21 05:32:43;;;;;;;13.88;6.03;;;16.30;74.30;;;;;;5132291;28;20030;-65
2022/05/21 05:35:09;;;;;;;14.35;5.90;;;16.30;74.20;;;;;;5115092;28;20322;-64
2022/05/21 05:37:35;;;;;;;13.82;5.97;;;16.30;74.10;;;;;;5114552;28;20051;-64
2022/05/21 05:40:02;;;;;;;13.75;5.72;;;16.30;74.00;;;;;;5114955;28;20043;-64
2022/05/21 05:42:27;;;;;;;11.50;5.53;;;16.40;74.00;;;;;;5114718;28;20370;-63
2022/05/21 05:44:54;;;;;;;13.13;5.78;;;16.40;73.80;;;;;;5119274;27;20020;-64
2022/05/21 05:47:20;;;;;;;14.30;6.03;;;16.40;73.70;;;;;;5117233;28;20337;-63
2022/05/21 05:49:45;;;;;;;18.60;6.00;;;16.40;73.70;;;;;;5120096;27;20035;-63
2022/05/21 05:52:11;;;;;;;9.45;5.00;;;16.50;73.60;;;;;;5121937;27;20039;-64
2022/05/21 05:54:37;;;;;;;12.93;4.72;;;16.60;73.50;;;;;;5122483;27;20038;-64
2022/05/21 05:57:07;;;;;;;15.52;5.70;;;16.70;73.20;;;;;;5124138;27;20084;-63
2022/05/21 05:59:51;;;;;;;13.10;5.25;;;16.70;72.90;;;;;;5131944;27;20227;-64
2022/05/21 06:05:16;;;;;;;10.25;3.80;;;16.90;72.40;;;;;;5134693;27;20035;-64
2022/05/21 06:07:53;;;;;;;13.30;3.83;;;17.00;72.20;;;;;;5124394;27;20039;-64
2022/05/21 06:10:23;;;;;;;13.50;3.80;;;17.00;72.00;;;;;;5131347;27;20031;-63
2022/05/21 06:12:49;;;;;;;13.90;3.95;;;17.00;71.90;;;;;;5134951;27;20031;-64
2022/05/21 06:15:15;;;;;;;10.40;3.28;;;17.10;71.90;;;;;;5132113;27;20385;-63
2022/05/21 06:17:41;;;;;;;10.43;3.28;;;17.10;71.70;;;;;;5117041;27;20055;-63
2022/05/21 06:20:10;;;;;;;10.02;3.85;;;17.00;71.60;;;;;;5117819;27;20025;-63
2022/05/21 06:22:36;;;;;;;11.07;3.42;;;17.00;71.50;;;;;;5112802;27;20035;-64
2022/05/21 06:25:03;;;;;;;11.68;3.65;;;17.10;71.50;;;;;;5130074;27;20097;-64
2022/05/21 06:27:28;;;;;;;9.02;2.88;;;17.10;71.30;;;;;;5118519;27;20024;-64
2022/05/21 06:29:54;;;;;;;11.02;3.22;;;17.10;71.20;;;;;;5126050;27;20027;-64
2022/05/21 06:32:20;;;;;;;11.05;3.30;;;17.20;71.10;;;;;;5112400;27;20027;-66
2022/05/21 06:34:46;;;;;;;13.10;3.33;;;17.20;71.00;;;;;;5118368;27;20024;-67
2022/05/21 06:37:12;;;;;;;8.95;3.25;;;17.20;70.90;;;;;;5119798;27;20073;-67
2022/05/21 06:39:39;;;;;;;12.82;3.15;;;17.30;70.70;;;;;;5135732;27;20427;-66
2022/05/21 06:42:06;;;;;;;15.70;3.45;;;17.40;70.10;;;;;;5118063;27;20109;-65
2022/05/21 06:44:32;;;;;;;10.80;2.95;;;17.60;69.60;;;;;;5115035;27;20035;-65
2022/05/21 06:46:58;;;;;;;14.50;3.33;;;17.60;69.40;;;;;;5120626;27;20388;-65
2022/05/21 06:49:26;;;;;;;12.32;3.28;;;17.60;69.30;;;;;;5137188;27;20030;-65
2022/05/21 06:51:56;;;;;;;12.80;3.40;;;17.70;69.10;;;;;;5150370;27;20348;-65
2022/05/21 06:54:23;;;;;;;11.70;3.15;;;17.60;68.80;;;;;;5130264;27;20343;-65
2022/05/21 06:56:49;;;;;;;10.45;2.45;;;17.50;69.10;;;;;;5116998;27;20052;-67
2022/05/21 06:59:16;;;;;;;11.27;2.90;;;17.50;69.30;;;;;;5136335;27;20379;-67
2022/05/21 07:01:42;;;;;;;11.63;2.97;;;17.50;69.20;;;;;;5134040;27;20027;-67
2022/05/21 07:04:13;;;;;;;10.32;2.50;;;17.60;69.10;;;;;;5116428;27;20046;-67
2022/05/21 07:09:44;;;;;;;11.80;2.85;;;17.50;68.70;;;;;;5074081;28;20369;-67
2022/05/21 07:12:11;;;;;;;9.15;2.83;;;17.40;68.70;;;;;;5055690;28;20029;-67
2022/05/21 07:14:36;;;;;;;9.90;2.97;;;17.50;68.60;;;;;;5051722;28;20559;-67
2022/05/21 07:17:02;;;;;;;10.23;2.95;;;17.60;68.40;;;;;;5054338;28;20032;-67
2022/05/21 07:19:28;;;;;;;10.55;3.20;;;17.60;68.10;;;;;;5070691;28;20453;-68
2022/05/21 07:21:53;;;;;;;11.75;3.15;;;17.50;68.20;;;;;;5069374;28;20040;-67
2022/05/21 07:24:20;;;;;;;11.07;2.88;;;17.50;68.30;;;;;;5057662;28;20032;-68
2022/05/21 07:26:46;;;;;;;6.88;2.13;;;17.60;68.30;;;;;;5067196;28;20044;-68
2022/05/21 07:29:12;;;;;;;12.95;3.10;;;17.70;68.20;;;;;;5066886;28;20032;-67
2022/05/21 07:31:38;;;;;;;14.57;3.22;;;17.80;67.70;;;;;;5056863;28;20043;-67
2022/05/21 07:34:05;;;;;;;6.88;2.10;;;17.90;67.50;;;;;;5048206;28;20481;-67
2022/05/21 07:36:31;;;;;;;7.88;2.17;;;18.00;67.20;;;;;;5081865;28;20135;-67
2022/05/21 07:38:56;;;;;;;11.23;2.63;;;18.10;67.10;;;;;;5074927;28;20596;-68
2022/05/21 07:41:24;;;;;;;8.77;2.63;;;18.20;66.50;;;;;;5109665;27;20042;-68
2022/05/21 07:43:50;;;;;;;11.95;2.67;;;18.10;67.00;;;;;;5123041;27;20464;-67
2022/05/21 07:46:16;;;;;;;9.88;2.60;;;18.20;66.60;;;;;;5123359;27;20115;-67
2022/05/21 07:48:41;;;;;;;11.00;2.50;;;18.60;66.00;;;;;;5119101;27;20096;-68
2022/05/21 07:51:08;;;;;;;8.80;2.63;;;19.00;65.20;;;;;;5127016;27;20056;-66
2022/05/21 07:53:37;;;;;;;9.38;2.53;;;19.30;64.40;;;;;;5138858;27;20019;-66
2022/05/21 07:56:03;;;;;;;7.07;2.33;;;19.40;63.90;;;;;;5132171;27;20031;-65
2022/05/21 07:58:33;;;;;;;11.55;3.10;;;19.60;63.40;;;;;;5115237;27;20445;-65
2022/05/21 08:00:59;;;;;;;8.35;2.50;;;19.70;62.90;;;;;;5145071;27;20038;-66
2022/05/21 08:03:25;;;;;;;8.30;2.67;;;19.50;63.00;;;;;;5126972;27;20054;-65
2022/05/21 08:05:51;;;;;;;11.73;2.95;;;19.40;63.20;;;;;;5126207;27;20435;-66
2022/05/21 08:08:17;;;;;;;9.25;2.30;;;19.40;63.10;;;;;;5115323;28;20035;-65
2022/05/21 08:10:44;;;;;;;9.90;2.85;;;19.40;63.10;;;;;;5123622;27;20360;-65
2022/05/21 08:13:11;;;;;;;9.10;2.72;;;19.30;63.20;;;;;;5115706;27;20062;-66
2022/05/21 08:15:38;;;;;;;10.00;3.03;;;19.10;63.30;;;;;;5116838;27;20076;-66
2022/05/21 08:18:05;;;;;;;10.00;3.05;;;19.10;63.20;;;;;;5127056;27;20164;-65
2022/05/21 08:20:32;;;;;;;9.05;2.20;;;19.00;63.10;;;;;;5131597;27;20111;-65
2022/05/21 08:28:26;;;;;;;11.88;3.10;;;19.10;62.90;;;;;;5132865;27;20530;-65
2022/05/21 08:30:52;;;;;;;12.02;2.83;;;19.00;62.60;;;;;;5114708;28;20123;-65
2022/05/21 08:33:19;;;;;;;7.60;2.53;;;18.90;62.80;;;;;;5113446;28;20030;-65
2022/05/21 08:35:45;;;;;;;8.77;2.45;;;19.00;62.50;;;;;;5120222;28;20027;-65
2022/05/21 08:38:12;;;;;;;9.07;2.20;;;19.10;62.30;;;;;;5135917;27;20066;-65
2022/05/21 08:40:44;;;;;;;12.25;2.60;;;19.30;62.00;;;;;;5120477;27;20081;-65
2022/05/21 08:43:22;;;;;;;13.07;2.97;;;19.70;61.20;;;;;;5114699;28;20042;-67
2022/05/21 08:46:00;;;;;;;9.48;2.28;;;19.70;60.80;;;;;;5115495;28;20032;-65
2022/05/21 08:48:31;;;;;;;12.50;3.00;;;19.70;61.10;;;;;;5115819;28;20028;-65
2022/05/21 08:50:58;;;;;;;6.20;1.90;;;19.80;60.90;;;;;;5115241;28;20043;-65
2022/05/21 08:53:26;;;;;;;7.68;2.35;;;20.10;60.50;;;;;;5117102;28;20458;-65
2022/05/21 08:55:55;;;;;;;4.93;1.73;;;20.50;59.90;;;;;;5135883;27;20356;-65
2022/05/21 08:58:27;;;;;;;10.18;2.30;;;20.70;59.20;;;;;;5135639;27;20023;-65
2022/05/21 09:00:55;;;;;;;10.68;2.50;;;20.90;58.40;;;;;;5135686;27;20027;-65
2022/05/21 09:03:23;;;;;;;8.45;2.42;;;21.00;58.00;;;;;;5135598;28;20108;-65
2022/05/21 09:05:58;;;;;;;10.27;3.08;;;21.10;57.60;;;;;;5134836;28;20351;-65
2022/05/21 09:08:47;;;;;;;8.27;2.63;;;21.10;57.50;;;;;;5115391;27;20088;-65
2022/05/21 09:11:26;;;;;;;8.98;2.17;;;21.10;57.40;;;;;;5114081;28;20028;-65
2022/05/21 09:14:08;;;;;;;11.00;2.22;;;21.00;57.50;;;;;;5115449;28;20043;-65
2022/05/21 09:16:55;;;;;;;7.32;1.95;;;20.70;57.70;;;;;;5113961;28;20169;-65
2022/05/21 09:19:37;;;;;;;9.10;2.15;;;20.50;58.20;;;;;;5117299;28;20436;-65
2022/05/21 09:22:10;;;;;;;9.18;2.75;;;20.60;58.10;;;;;;5118079;27;20517;-65
2022/05/21 09:24:43;;;;;;;6.28;2.15;;;20.90;57.60;;;;;;5119006;28;20040;-65
2022/05/21 09:27:31;;;;;;;8.52;2.55;;;21.30;57.00;;;;;;5101049;28;20426;-65
2022/05/21 09:30:23;;;;;;;9.00;2.33;;;21.30;56.30;;;;;;5119025;28;20036;-65
2022/05/21 09:32:54;;;;;;;7.80;2.50;;;21.10;56.50;;;;;;5117296;28;20046;-65
2022/05/21 09:35:56;;;;;;;5.85;2.28;;;20.90;56.80;;;;;;5119195;28;20416;-65
2022/05/21 09:38:32;;;;;;;8.52;2.83;;;20.80;56.80;;;;;;5117515;28;20051;-65
2022/05/21 09:41:19;;;;;;;10.00;2.53;;;20.60;57.10;;;;;;5117612;28;20031;-65
2022/05/21 09:46:44;;;;;;;9.18;2.67;;;20.30;57.80;;;;;;5118585;28;20032;-65
2022/05/21 09:49:20;;;;;;;11.48;2.92;;;20.20;58.00;;;;;;5122964;27;20030;-65
2022/05/21 09:51:54;;;;;;;10.73;2.90;;;20.10;58.00;;;;;;5138996;27;20352;-65
2022/05/21 09:54:45;;;;;;;9.70;2.97;;;20.00;58.10;;;;;;5139418;27;20351;-65
2022/05/21 09:57:30;;;;;;;12.45;2.83;;;19.80;58.80;;;;;;5139282;27;20109;-65
2022/05/21 10:00:28;;;;;;;9.63;2.60;;;19.60;59.10;;;;;;5138969;27;20027;-65
2022/05/21 10:02:56;;;;;;;8.35;2.88;;;19.40;59.40;;;;;;5126701;27;20107;-65
2022/05/21 10:05:51;;;;;;;8.73;3.15;;;19.30;59.80;;;;;;5118239;28;20440;-65
2022/05/21 10:11:28;;;;;;;9.75;3.10;;;19.50;59.90;;;;;;5118601;28;20472;-65
2022/05/21 10:14:03;;;;;;;8.25;2.60;;;19.70;59.70;;;;;;5118535;28;20032;-65
2022/05/21 10:16:44;;;;;;;8.95;2.70;;;19.70;59.40;;;;;;5118154;28;20032;-65
2022/05/21 10:19:18;;;;;;;8.65;2.90;;;19.70;59.30;;;;;;5118055;28;20031;-65
2022/05/21 10:22:11;;;;;;;9.60;2.80;;;19.90;59.20;;;;;;5117860;28;20028;-65
2022/05/21 10:24:55;;;;;;;11.85;3.28;;;20.10;58.70;;;;;;5117371;28;20047;-65
2022/05/21 10:27:43;;;;;;;11.02;3.22;;;20.30;58.40;;;;;;5118840;27;20032;-65
2022/05/21 10:30:35;;;;;;;7.18;2.75;;;20.50;58.00;;;;;;5096666;28;20390;-65
2022/05/21 10:33:18;;;;;;;8.95;2.75;;;20.50;57.80;;;;;;5118486;28;20040;-65
2022/05/21 10:36:12;;;;;;;7.72;2.70;;;20.50;57.60;;;;;;5117689;28;20467;-65
2022/05/21 10:38:51;;;;;;;10.18;2.97;;;20.60;57.50;;;;;;5116330;28;20043;-65
2022/05/21 10:41:56;;;;;;;9.75;2.88;;;20.70;57.30;;;;;;5117416;28;20038;-65
2022/05/21 10:44:43;;;;;;;9.77;2.45;;;20.80;56.70;;;;;;5117304;28;20037;-65
2022/05/21 10:47:34;;;;;;;9.15;2.53;;;20.90;56.70;;;;;;5115725;28;20115;-64
2022/05/21 10:50:09;;;;;;;;;;;21.00;56.40;;;;;;5119899;27;20051;-65
2022/05/21 10:53:06;;;;;;;7.63;2.05;;;21.10;56.60;;;;;;5137918;27;19911;-65
2022/05/21 10:56:02;;;;;;;9.30;2.50;;;21.20;56.30;;;;;;5136903;27;20046;-65
2022/05/21 10:58:47;;;;;;;7.25;3.00;;;21.20;55.80;;;;;;5137952;27;20420;-65
2022/05/21 11:01:16;;;;;;;9.38;3.08;;;21.00;55.80;;;;;;5137616;27;20038;-65
2022/05/21 11:04:19;;;;;;;8.60;2.70;;;21.00;56.70;;;;;;5124448;27;20032;-66
2022/05/21 11:07:17;;;;;;;6.93;2.08;;;21.00;56.20;;;;;;5116965;28;20059;-66
2022/05/21 11:09:55;;;;;;;9.98;2.75;;;20.90;55.80;;;;;;5117381;28;20093;-66
2022/05/21 11:12:29;;;;;;;6.80;2.00;;;20.90;55.70;;;;;;5116071;28;20423;-66
2022/05/21 11:15:04;;;;;;;8.38;2.28;;;20.80;55.60;;;;;;5117285;28;20039;-66
2022/05/21 11:17:42;;;;;;;7.25;2.60;;;20.70;55.90;;;;;;5116806;28;20061;-65
2022/05/21 11:20:20;;;;;;;8.95;2.70;;;20.60;56.20;;;;;;5117202;28;20020;-65
2022/05/21 11:23:09;;;;;;;10.93;3.00;;;20.50;56.40;;;;;;5116431;28;20024;-65
2022/05/21 11:25:57;;;;;;;13.25;3.17;;;20.50;56.20;;;;;;5117018;28;20023;-65
2022/05/21 11:28:37;;;;;;;7.38;2.10;;;20.50;56.30;;;;;;5136998;27;20356;-65
2022/05/21 11:31:15;;;;;;;9.43;2.70;;;20.50;56.30;;;;;;5137354;27;20039;-65
2022/05/21 11:39:19;;;;;;;6.35;2.55;;;20.70;56.20;;;;;;5136454;27;20487;-65
2022/05/21 11:41:55;;;;;;;10.18;3.00;;;20.80;55.80;;;;;;5135748;27;20126;-65
2022/05/21 11:47:19;;;;;;;9.02;3.15;;;21.00;55.40;;;;;;5120094;27;20144;-65
2022/05/21 11:49:57;;;;;;;9.77;3.15;;;21.10;55.20;;;;;;5115534;28;20360;-65
2022/05/21 11:52:29;;;;;;;7.38;3.15;;;21.00;54.90;;;;;;5115829;28;20036;-65
2022/05/21 11:54:54;;;;;;;;;;;21.10;55.00;;;;;;5116387;28;20027;-65
2022/05/21 11:57:46;;;;;;;7.22;2.70;;;21.10;55.10;;;;;;5115298;28;19961;-65
2022/05/21 12:00:18;;;;;;;10.40;2.70;;;21.20;55.00;;;;;;5115706;28;20325;-65
2022/05/21 12:02:58;;;;;;;8.57;2.70;;;21.40;55.10;;;;;;5115799;27;20023;-65
2022/05/21 12:05:33;;;;;;;7.60;2.50;;;21.50;54.40;;;;;;5116723;28;20385;-65
2022/05/21 12:08:13;;;;;;;7.05;2.67;;;21.50;54.30;;;;;;5115582;28;20438;-65
2022/05/21 12:11:04;;;;;;;7.63;2.65;;;21.60;54.20;;;;;;5126619;27;20034;-65
2022/05/21 12:13:35;;;;;;;8.80;2.70;;;21.70;54.20;;;;;;5137073;27;20059;-65
2022/05/21 12:16:20;;;;;;;8.18;2.38;;;21.80;53.70;;;;;;5136340;27;20038;-65
2022/05/21 12:18:49;;;;;;;10.00;2.95;;;21.80;53.60;;;;;;5135351;27;20023;-65
2022/05/21 12:21:32;;;;;;;10.23;2.63;;;21.70;53.40;;;;;;5136043;27;20289;-65
2022/05/21 12:23:58;;;;;;;8.32;2.40;;;21.70;53.20;;;;;;5133247;27;20027;-65
2022/05/21 12:26:33;;;;;;;10.55;2.97;;;21.80;53.30;;;;;;5135216;27;20019;-65
2022/05/21 12:29:27;;;;;;;7.97;2.20;;;21.80;52.90;;;;;;5136155;27;20386;-65
2022/05/21 12:31:55;;;;;;;7.85;2.13;;;21.90;53.00;;;;;;5136156;27;20038;-65
2022/05/21 12:34:44;;;;;;;8.60;2.63;;;21.90;53.10;;;;;;5135453;27;20019;-65
2022/05/21 12:37:20;;;;;;;7.18;2.30;;;22.00;53.00;;;;;;5136025;27;20027;-65
2022/05/21 12:40:05;;;;;;;9.75;2.17;;;22.00;53.10;;;;;;5114662;28;20038;-65
2022/05/21 12:42:43;;;;;;;5.53;1.88;;;22.00;53.20;;;;;;5115799;28;20063;-65
2022/05/21 12:45:12;;;;;;;8.30;2.25;;;22.00;53.30;;;;;;5115417;28;20042;-65
2022/05/21 12:47:40;;;;;;;7.78;2.15;;;21.90;53.00;;;;;;5097194;28;20073;-65
2022/05/21 12:50:22;;;;;;;7.57;2.30;;;21.90;53.00;;;;;;5115090;28;20046;-65
2022/05/21 12:52:56;;;;;;;8.10;2.30;;;21.90;52.90;;;;;;5117195;28;20142;-65
2022/05/21 12:55:25;;;;;;;9.48;2.50;;;21.80;53.10;;;;;;5119294;27;20024;-65
2022/05/21 12:57:56;;;;;;;8.38;2.90;;;21.80;53.10;;;;;;5119709;28;20451;-65
2022/05/21 13:00:29;;;;;;;;;;;21.70;53.20;;;;;;5120527;28;20027;-65
2022/05/21 13:02:56;;;;;;;8.23;2.22;;;21.70;53.30;;;;;;5118669;28;20210;-65
2022/05/21 13:05:32;;;;;;;7.35;2.38;;;21.60;53.40;;;;;;5118608;28;20168;-65
2022/05/21 13:08:03;;;;;;;5.85;2.20;;;21.50;53.40;;;;;;5117709;27;20035;-65
2022/05/21 13:10:32;;;;;;;6.25;1.90;;;21.40;53.80;;;;;;5117879;28;20024;-65
2022/05/21 13:13:12;;;;;;;6.82;2.45;;;21.20;53.90;;;;;;5119125;28;20027;-64
2022/05/21 13:15:45;;;;;;;8.82;2.50;;;21.20;54.40;;;;;;5118313;28;20054;-65
2022/05/21 13:18:19;;;;;;;9.70;2.88;;;21.20;54.30;;;;;;5119682;28;20244;-65
2022/05/21 13:21:24;;;;;;;9.00;2.63;;;21.30;54.30;;;;;;5119145;28;20089;-65
2022/05/21 13:24:15;;;;;;;9.23;2.65;;;21.30;54.10;;;;;;5127112;27;20039;-65
2022/05/21 13:26:41;;;;;;;9.27;2.30;;;21.40;53.80;;;;;;5135372;27;20332;-67
2022/05/21 13:29:25;;;;;;;8.00;2.30;;;21.50;53.60;;;;;;5127963;27;20088;-65
2022/05/21 13:31:53;;;;;;;7.25;2.15;;;21.50;53.50;;;;;;5124448;27;20080;-65
2022/05/21 13:34:25;;;;;;;9.07;1.77;;;21.60;53.40;;;;;;5127582;27;20393;-65